Time;durP1;ratioP1;P1;durP2;ratioP2;P2;SDS_P1;SDS_P2;PMS_P1;PMS_P2;Temp;Humidity;BMP_temperature;BMP_pressure;BME280_temperature;BME280_humidity;BME280_pressure;Samples;Min_cycle;Max_cycle;Signal;HPM_P1;HPM_P2
2023/02/10 00:02:07;;;;;;;45.97;21.10;;;;;;;1.43;100.00;98062.66;5096261;27;20071;-56
2023/02/10 00:04:36;;;;;;;48.50;23.25;;;;;;;1.49;100.00;98059.03;5091761;28;20071;-56
2023/02/10 00:07:05;;;;;;;48.42;22.45;;;;;;;1.51;100.00;98059.81;5091321;27;20075;-58
2023/02/10 00:09:34;;;;;;;50.33;23.45;;;;;;;1.52;100.00;98058.94;5091863;28;20087;-55
2023/02/10 00:12:02;;;;;;;48.55;23.63;;;;;;;1.57;100.00;98063.97;5091370;27;20083;-56
2023/02/10 00:14:31;;;;;;;49.58;22.50;;;;;;;1.45;100.00;98067.84;5091800;28;20091;-52
2023/02/10 00:16:59;;;;;;;48.88;22.20;;;;;;;1.37;100.00;98070.66;5096734;28;20056;-51
2023/02/10 00:19:29;;;;;;;49.38;23.35;;;;;;;1.46;100.00;98066.91;5089331;27;20105;-57
2023/02/10 00:21:57;;;;;;;50.17;23.10;;;;;;;1.45;100.00;98065.22;5091100;27;20131;-55
2023/02/10 00:24:28;;;;;;;54.97;23.17;;;;;;;1.48;100.00;98072.94;5095700;27;20056;-51
2023/02/10 00:26:56;;;;;;;43.97;22.02;;;;;;;1.48;100.00;98075.53;5092898;27;20051;-54
2023/02/10 00:29:25;;;;;;;48.30;21.73;;;;;;;1.49;100.00;98069.44;5099729;27;20466;-55
2023/02/10 00:31:56;;;;;;;50.35;22.35;;;;;;;1.49;100.00;98079.81;5106671;27;20083;-56
2023/02/10 00:34:25;;;;;;;50.88;22.48;;;;;;;1.49;100.00;98086.78;5102786;27;20063;-54
2023/02/10 00:36:53;;;;;;;53.20;22.70;;;;;;;1.47;100.00;98085.97;5098866;27;20071;-55
2023/02/10 00:39:22;;;;;;;45.78;23.05;;;;;;;1.47;100.00;98096.38;5101306;28;20074;-57
2023/02/10 00:41:51;;;;;;;50.00;22.30;;;;;;;1.40;100.00;98098.31;5104604;27;20463;-52
2023/02/10 00:44:20;;;;;;;43.80;21.85;;;;;;;1.41;100.00;98106.06;5097644;27;20468;-55
2023/02/10 00:46:48;;;;;;;49.47;21.65;;;;;;;1.41;100.00;98105.19;5096981;27;20074;-55
2023/02/10 00:49:17;;;;;;;44.90;21.77;;;;;;;1.38;100.00;98095.75;5101905;27;20082;-53
2023/02/10 00:51:45;;;;;;;50.55;22.45;;;;;;;1.37;100.00;98101.84;5111077;27;20076;-49
2023/02/10 00:54:14;;;;;;;47.35;22.98;;;;;;;1.37;100.00;98101.84;5100435;28;20103;-54
2023/02/10 00:56:42;;;;;;;50.88;23.23;;;;;;;1.35;100.00;98102.81;5101906;27;20075;-55
2023/02/10 00:59:13;;;;;;;47.50;23.27;;;;;;;1.36;100.00;98109.69;5095297;27;20145;-51
2023/02/10 01:01:41;;;;;;;47.40;23.33;;;;;;;1.37;100.00;98108.78;5096129;27;20075;-54
2023/02/10 01:04:09;;;;;;;54.65;24.27;;;;;;;1.27;100.00;98105.63;5094559;27;20082;-53
2023/02/10 01:06:38;;;;;;;55.58;24.73;;;;;;;1.19;100.00;98110.22;5091716;27;20082;-53
2023/02/10 01:09:06;;;;;;;53.42;23.15;;;;;;;1.28;100.00;98109.09;5096210;27;20626;-59
2023/02/10 01:11:35;;;;;;;53.67;25.25;;;;;;;1.23;100.00;98111.81;5096554;27;20083;-53
2023/02/10 01:14:03;;;;;;;49.40;23.58;;;;;;;1.22;100.00;98109.28;5095798;27;20081;-57
2023/02/10 01:16:33;;;;;;;53.53;24.95;;;;;;;1.13;100.00;98112.97;5099425;27;20063;-51
2023/02/10 01:19:02;;;;;;;49.90;23.45;;;;;;;1.06;100.00;98107.13;5095216;27;20621;-55
2023/02/10 01:21:31;;;;;;;52.47;24.73;;;;;;;1.16;100.00;98105.09;5106631;27;20074;-55
2023/02/10 01:24:00;;;;;;;48.78;24.77;;;;;;;1.16;100.00;98105.94;5105028;27;20553;-55
2023/02/10 01:26:28;;;;;;;58.10;25.60;;;;;;;1.06;100.00;98107.13;5090868;28;20082;-55
2023/02/10 01:28:57;;;;;;;49.95;24.02;;;;;;;1.10;100.00;98113.06;5095663;27;20074;-52
2023/02/10 01:31:25;;;;;;;45.35;22.58;;;;;;;1.09;100.00;98117.41;5096306;27;20075;-51
2023/02/10 01:33:56;;;;;;;49.95;23.73;;;;;;;1.08;100.00;98115.72;5109502;27;20070;-56
2023/02/10 01:36:25;;;;;;;48.25;24.52;;;;;;;1.08;100.00;98113.13;5098092;27;20079;-56
2023/02/10 01:38:53;;;;;;;53.53;24.58;;;;;;;1.12;100.00;98119.94;5107316;27;20451;-53
2023/02/10 01:41:23;;;;;;;54.70;24.08;;;;;;;1.10;100.00;98116.53;5105820;27;20074;-58
2023/02/10 01:44:00;;;;;;;55.05;25.70;;;;;;;1.12;100.00;98117.34;5105318;28;20074;-58
2023/02/10 01:46:30;;;;;;;51.90;23.60;;;;;;;1.09;100.00;98122.63;5099224;27;20064;-56
2023/02/10 01:49:02;;;;;;;51.10;24.63;;;;;;;1.14;100.00;98128.53;5100485;27;20070;-54
2023/02/10 01:51:37;;;;;;;50.63;24.40;;;;;;;1.10;100.00;98126.94;5098840;27;20080;-52
2023/02/10 01:54:08;;;;;;;54.08;24.48;;;;;;;1.13;100.00;98128.56;5104732;27;20062;-53
2023/02/10 01:56:37;;;;;;;53.35;24.10;;;;;;;1.09;100.00;98132.16;5100944;27;20067;-55
2023/02/10 01:59:05;;;;;;;59.28;24.60;;;;;;;1.04;100.00;98134.06;5099174;28;20067;-54
2023/02/10 02:01:34;;;;;;;48.67;23.20;;;;;;;0.99;100.00;98131.56;5097462;28;20086;-55
2023/02/10 02:04:04;;;;;;;49.63;23.42;;;;;;;1.00;100.00;98128.09;5103565;27;20083;-54
2023/02/10 02:06:32;;;;;;;51.22;23.05;;;;;;;0.98;100.00;98129.88;5103079;27;20079;-55
2023/02/10 02:09:01;;;;;;;49.67;24.40;;;;;;;0.62;100.00;98132.63;5106660;27;20059;-54
2023/02/10 02:11:35;;;;;;;54.25;25.40;;;;;;;0.53;100.00;98138.06;5103659;28;20059;-51
2023/02/10 02:14:20;;;;;;;55.90;26.33;;;;;;;0.73;100.00;98140.13;5108440;28;20059;-56
2023/02/10 02:17:00;;;;;;;56.47;25.88;;;;;;;0.75;100.00;98135.72;5101304;28;20076;-48
2023/02/10 02:23:11;;;;;;;54.28;24.45;;;;;;;0.59;100.00;98143.09;5093462;28;20067;-50
2023/02/10 02:25:59;;;;;;;50.47;24.50;;;;;;;0.61;100.00;98149.09;5101141;28;20066;-52
2023/02/10 02:28:38;;;;;;;49.58;24.58;;;;;;;0.44;100.00;98139.16;5099399;28;20082;-51
2023/02/10 02:31:23;;;;;;;52.10;24.58;;;;;;;0.35;100.00;98142.00;5101401;27;20072;-53
2023/02/10 02:33:57;;;;;;;50.85;25.48;;;;;;;-0.08;100.00;98147.44;5103494;28;20535;-54
2023/02/10 02:36:28;;;;;;;57.63;27.55;;;;;;;0.13;100.00;98143.44;5108239;27;20080;-54
2023/02/10 02:39:00;;;;;;;51.63;25.45;;;;;;;0.27;100.00;98143.09;5110539;27;20461;-51
2023/02/10 02:41:29;;;;;;;50.22;24.00;;;;;;;0.60;100.00;98149.13;5108866;27;20460;-60
2023/02/10 02:43:58;;;;;;;51.90;24.88;;;;;;;0.13;100.00;98153.81;5105910;27;20583;-53
2023/02/10 02:46:36;;;;;;;50.17;24.92;;;;;;;0.19;100.00;98145.88;5107739;27;20078;-57
2023/02/10 02:49:10;;;;;;;51.63;24.45;;;;;;;0.20;100.00;98145.84;5098025;28;20082;-56
2023/02/10 02:51:43;;;;;;;53.28;23.80;;;;;;;0.36;100.00;98143.72;5092494;28;20087;-54
2023/02/10 02:54:17;;;;;;;49.67;25.42;;;;;;;0.36;100.00;98153.25;5094713;28;20094;-51
2023/02/10 02:56:48;;;;;;;54.85;24.35;;;;;;;0.46;100.00;98142.56;5102438;27;20083;-52
2023/02/10 02:59:21;;;;;;;52.20;24.33;;;;;;;0.15;100.00;98147.72;5101653;27;20082;-53
2023/02/10 03:01:54;;;;;;;53.08;24.90;;;;;;;0.08;100.00;98153.09;5107210;27;20545;-53
2023/02/10 03:04:24;;;;;;;44.75;22.90;;;;;;;0.46;100.00;98142.56;5103649;27;20087;-52
2023/02/10 03:06:52;;;;;;;51.63;23.92;;;;;;;0.53;100.00;98142.41;5101798;27;20078;-50
2023/02/10 03:09:21;;;;;;;51.40;23.13;;;;;;;0.39;100.00;98145.38;5104663;27;20079;-55
2023/02/10 03:11:49;;;;;;;49.10;22.70;;;;;;;0.21;100.00;98146.72;5104381;27;20086;-52
2023/02/10 03:14:18;;;;;;;43.58;22.58;;;;;;;0.36;100.00;98146.31;5097029;27;20551;-53
2023/02/10 03:16:46;;;;;;;52.05;22.63;;;;;;;0.55;100.00;98144.09;5104753;27;20094;-55
2023/02/10 03:19:15;;;;;;;43.67;21.65;;;;;;;0.61;100.00;98148.22;5107058;27;20570;-53
2023/02/10 03:21:44;;;;;;;46.78;23.05;;;;;;;0.38;100.00;98138.47;5104276;27;20090;-54
2023/02/10 03:24:13;;;;;;;45.25;22.10;;;;;;;0.61;100.00;98137.84;5095246;27;20598;-56
2023/02/10 03:26:41;;;;;;;48.08;20.70;;;;;;;0.22;100.00;98144.06;5097243;27;20087;-54
2023/02/10 03:29:11;;;;;;;42.90;21.88;;;;;;;0.15;100.00;98155.50;5114948;27;20071;-51
2023/02/10 03:31:39;;;;;;;47.88;21.70;;;;;;;0.13;100.00;98157.25;5104448;27;20527;-52
2023/02/10 03:34:08;;;;;;;46.70;21.77;;;;;;;0.46;100.00;98150.34;5101458;27;20083;-59
2023/02/10 03:36:36;;;;;;;39.67;21.25;;;;;;;-0.03;100.00;98155.97;5098544;28;20083;-58
2023/02/10 03:39:06;;;;;;;42.55;20.95;;;;;;;0.40;100.00;98155.69;5097177;27;20090;-53
2023/02/10 03:41:34;;;;;;;49.25;23.33;;;;;;;0.38;100.00;98159.22;5095337;27;20084;-58
2023/02/10 03:44:03;;;;;;;42.55;22.13;;;;;;;-0.06;100.00;98156.88;5103366;27;20075;-55
2023/02/10 03:46:31;;;;;;;48.70;23.08;;;;;;;0.21;100.00;98157.94;5103129;27;20082;-48
2023/02/10 03:48:59;;;;;;;45.00;22.17;;;;;;;0.59;100.00;98150.88;5102579;28;20079;-57
2023/02/10 03:51:28;;;;;;;47.05;22.75;;;;;;;0.12;100.00;98160.75;5097817;27;20083;-53
2023/02/10 03:53:56;;;;;;;47.88;24.98;;;;;;;-0.04;100.00;98170.63;5098861;27;20531;-50
2023/02/10 03:56:26;;;;;;;42.05;20.77;;;;;;;0.54;100.00;98157.94;5100426;27;20563;-51
2023/02/10 03:58:54;;;;;;;45.07;22.37;;;;;;;0.69;100.00;98164.47;5104533;27;20071;-52
2023/02/10 04:01:22;;;;;;;45.15;22.88;;;;;;;0.51;100.00;98165.78;5101207;27;21823;-54
2023/02/10 04:03:51;;;;;;;44.50;22.63;;;;;;;0.51;100.00;98165.78;5106094;27;20082;-53
2023/02/10 04:06:19;;;;;;;45.47;23.10;;;;;;;0.58;100.00;98164.75;5101539;27;20195;-51
2023/02/10 04:08:48;;;;;;;44.60;21.10;;;;;;;0.85;100.00;98167.47;5095693;27;20707;-59
2023/02/10 04:11:16;;;;;;;41.72;22.13;;;;;;;0.65;100.00;98168.91;5100449;27;20102;-57
2023/02/10 04:13:46;;;;;;;47.05;23.17;;;;;;;0.27;100.00;98171.63;5112111;27;20554;-55
2023/02/10 04:16:15;;;;;;;47.15;22.20;;;;;;;0.66;100.00;98180.13;5102998;27;20083;-51
2023/02/10 04:18:44;;;;;;;46.65;21.95;;;;;;;0.59;100.00;98176.00;5101796;27;20079;-55
2023/02/10 04:21:13;;;;;;;40.47;20.60;;;;;;;0.92;100.00;98171.59;5105919;27;20090;-54
2023/02/10 04:23:41;;;;;;;46.20;21.67;;;;;;;0.93;100.00;98174.19;5094138;27;20075;-54
2023/02/10 04:26:09;;;;;;;41.80;20.23;;;;;;;1.13;100.00;98183.97;5104120;27;20128;-50
2023/02/10 04:28:38;;;;;;;43.25;20.48;;;;;;;1.23;100.00;98189.78;5107342;27;20075;-55
2023/02/10 04:31:09;;;;;;;42.67;19.23;;;;;;;1.22;100.00;98201.06;5108984;27;20550;-49
2023/02/10 04:33:38;;;;;;;43.72;20.27;;;;;;;1.31;100.00;98200.81;5110870;27;20083;-51
2023/02/10 04:36:07;;;;;;;42.75;20.45;;;;;;;1.34;100.00;98203.31;5103997;27;20065;-52
2023/02/10 04:38:36;;;;;;;40.97;19.83;;;;;;;1.29;100.00;98207.78;5092411;27;20063;-54
2023/02/10 04:41:04;;;;;;;39.20;19.23;;;;;;;1.26;100.00;98209.63;5093828;27;20127;-52
2023/02/10 04:43:33;;;;;;;38.95;20.27;;;;;;;1.20;100.00;98200.25;5099063;27;20078;-53
2023/02/10 04:46:03;;;;;;;39.88;19.90;;;;;;;1.17;100.00;98192.53;5098522;27;20078;-54
2023/02/10 04:48:34;;;;;;;35.53;18.42;;;;;;;1.14;100.00;98190.91;5102249;27;20078;-50
2023/02/10 04:51:06;;;;;;;34.28;18.60;;;;;;;0.85;100.00;98188.25;5104264;27;20085;-53
2023/02/10 04:53:36;;;;;;;39.75;19.50;;;;;;;0.61;100.00;98202.75;5095139;27;20075;-52
2023/02/10 04:56:06;;;;;;;39.50;19.55;;;;;;;0.84;100.00;98189.16;5097050;27;20090;-55
2023/02/10 04:58:34;;;;;;;39.97;19.27;;;;;;;0.53;100.00;98194.31;5115782;27;20083;-58
2023/02/10 05:01:02;;;;;;;40.28;19.50;;;;;;;0.53;100.00;98199.53;5107775;27;20110;-54
2023/02/10 05:03:31;;;;;;;40.28;20.20;;;;;;;0.31;100.00;98205.25;5104508;27;20079;-56
2023/02/10 05:06:06;;;;;;;44.28;20.77;;;;;;;0.52;100.00;98203.88;5106758;27;20083;-54
2023/02/10 05:08:38;;;;;;;40.22;19.45;;;;;;;0.77;100.00;98216.19;5099669;27;20108;-56
2023/02/10 05:11:06;;;;;;;38.28;17.83;;;;;;;0.88;100.00;98211.56;5094655;27;20079;-49
2023/02/10 05:13:34;;;;;;;38.08;17.92;;;;;;;0.90;100.00;98215.81;5093372;27;20079;-57
2023/02/10 05:16:03;;;;;;;37.90;18.50;;;;;;;0.93;100.00;98218.34;5103987;27;20067;-56
2023/02/10 05:18:35;;;;;;;37.08;18.33;;;;;;;0.92;100.00;98215.75;5107564;27;20545;-52
2023/02/10 05:21:05;;;;;;;37.83;18.30;;;;;;;0.97;100.00;98219.09;5104320;27;20082;-54
2023/02/10 05:23:35;;;;;;;36.80;18.67;;;;;;;0.98;100.00;98218.19;5108336;28;20086;-58
2023/02/10 05:26:03;;;;;;;40.22;18.48;;;;;;;0.91;100.00;98217.50;5087649;28;20071;-55
2023/02/10 05:28:32;;;;;;;39.65;19.55;;;;;;;0.80;100.00;98219.56;5097685;27;20084;-55
2023/02/10 05:31:03;;;;;;;40.40;18.60;;;;;;;0.70;100.00;98218.09;5098202;27;20083;-53
2023/02/10 05:33:32;;;;;;;35.47;18.33;;;;;;;0.69;100.00;98217.25;5097703;28;20079;-53
2023/02/10 05:36:00;;;;;;;39.55;18.92;;;;;;;0.66;100.00;98222.53;5099499;27;20822;-55
2023/02/10 05:38:30;;;;;;;37.38;19.77;;;;;;;0.63;100.00;98225.19;5098909;28;20768;-58
2023/02/10 05:40:58;;;;;;;43.57;21.43;;;;;;;0.65;100.00;98222.53;5092366;27;20079;-55
2023/02/10 05:43:27;;;;;;;42.40;20.33;;;;;;;0.60;100.00;98227.03;5092741;28;20086;-55
2023/02/10 05:45:55;;;;;;;45.50;21.20;;;;;;;0.59;100.00;98241.75;5099720;27;20081;-54
2023/02/10 05:48:24;;;;;;;43.95;21.23;;;;;;;0.52;100.00;98235.00;5098174;27;20141;-51
2023/02/10 05:50:52;;;;;;;41.50;20.77;;;;;;;0.47;100.00;98239.44;5105064;28;20071;-52
2023/02/10 05:53:20;;;;;;;44.10;21.25;;;;;;;0.49;100.00;98239.44;5096086;27;20082;-53
2023/02/10 05:55:50;;;;;;;40.78;19.55;;;;;;;0.39;100.00;98244.00;5097892;27;20086;-56
2023/02/10 05:58:18;;;;;;;38.00;19.00;;;;;;;0.38;100.00;98240.53;5091897;27;20113;-57
2023/02/10 06:00:47;;;;;;;40.35;21.25;;;;;;;0.05;100.00;98251.72;5100339;27;20090;-50
2023/02/10 06:03:15;;;;;;;41.42;20.00;;;;;;;0.13;100.00;98245.47;5107940;27;20487;-59
2023/02/10 06:05:45;;;;;;;35.85;17.85;;;;;;;0.20;100.00;98253.94;5103904;27;20086;-51
2023/02/10 06:08:14;;;;;;;;;;;;;;;0.21;100.00;98248.75;5094749;27;20153;-58
2023/02/10 06:10:42;;;;;;;37.47;17.30;;;;;;;0.11;100.00;98255.03;5092633;27;19959;-53
2023/02/10 06:13:11;;;;;;;36.63;18.58;;;;;;;0.21;100.00;98255.69;5093760;28;20094;-54
2023/02/10 06:15:40;;;;;;;44.55;20.25;;;;;;;0.24;100.00;98258.16;5095954;28;20468;-54
2023/02/10 06:18:08;;;;;;;35.40;17.10;;;;;;;0.23;100.00;98257.31;5103042;28;20093;-54
2023/02/10 06:20:36;;;;;;;43.95;19.15;;;;;;;0.27;100.00;98257.25;5110458;28;20531;-56
2023/02/10 06:23:05;;;;;;;34.85;17.17;;;;;;;0.14;100.00;98256.72;5111439;28;20082;-53
2023/02/10 06:25:35;;;;;;;39.08;18.08;;;;;;;-0.04;100.00;98257.97;5094990;27;20075;-61
2023/02/10 06:28:04;;;;;;;38.50;18.30;;;;;;;0.19;100.00;98267.81;5098365;28;20095;-57
2023/02/10 06:30:34;;;;;;;37.63;17.42;;;;;;;0.06;100.00;98269.84;5099650;28;20079;-55
2023/02/10 06:33:02;;;;;;;37.85;18.83;;;;;;;0.40;100.00;98275.09;5111476;28;20079;-54
2023/02/10 06:35:31;;;;;;;42.70;22.52;;;;;;;0.47;100.00;98275.78;5095547;28;20106;-53
2023/02/10 06:37:59;;;;;;;88.63;38.65;;;;;;;0.53;100.00;98288.63;5095827;28;20083;-56
2023/02/10 06:40:27;;;;;;;66.63;29.55;;;;;;;0.46;100.00;98276.69;5104434;27;20083;-54
2023/02/10 06:42:56;;;;;;;54.42;27.40;;;;;;;0.46;100.00;98282.72;5105265;28;20177;-53
2023/02/10 06:45:24;;;;;;;48.90;23.98;;;;;;;0.55;100.00;98276.47;5104978;28;20131;-59
2023/02/10 06:47:54;;;;;;;42.35;20.10;;;;;;;0.53;100.00;98291.22;5105845;27;20565;-58
2023/02/10 06:50:23;;;;;;;39.72;21.58;;;;;;;0.50;100.00;98286.09;5095772;28;20110;-57
2023/02/10 06:52:51;;;;;;;42.35;19.85;;;;;;;0.65;100.00;98290.94;5090491;28;20079;-55
2023/02/10 06:55:19;;;;;;;37.58;20.17;;;;;;;0.69;100.00;98296.91;5090861;28;20083;-53
2023/02/10 06:57:48;;;;;;;40.35;19.38;;;;;;;0.81;100.00;98296.56;5095129;28;20078;-49
2023/02/10 07:00:16;;;;;;;38.58;19.42;;;;;;;0.95;100.00;98309.19;5093953;28;20082;-55
2023/02/10 07:02:45;;;;;;;35.13;18.95;;;;;;;1.04;100.00;98314.16;5095271;28;20587;-53
2023/02/10 07:05:18;;;;;;;36.80;18.23;;;;;;;1.09;100.00;98314.88;5099511;27;20599;-53
2023/02/10 07:07:47;;;;;;;38.13;18.83;;;;;;;1.08;100.00;98305.38;5097433;28;20079;-56
2023/02/10 07:10:15;;;;;;;34.60;17.50;;;;;;;1.14;100.00;98313.03;5097198;28;20079;-55
2023/02/10 07:12:43;;;;;;;32.85;15.80;;;;;;;1.28;100.00;98324.81;5110259;28;20086;-53
2023/02/10 07:15:12;;;;;;;27.58;15.00;;;;;;;1.35;100.00;98319.38;5098921;28;20091;-54
2023/02/10 07:17:40;;;;;;;31.70;16.33;;;;;;;1.49;100.00;98316.41;5102155;27;20083;-55
2023/02/10 07:20:09;;;;;;;28.40;15.02;;;;;;;1.61;100.00;98330.78;5114417;27;20102;-54
2023/02/10 07:22:39;;;;;;;30.98;16.15;;;;;;;1.75;100.00;98325.19;5103512;27;20093;-53
2023/02/10 07:25:07;;;;;;;33.45;15.90;;;;;;;1.80;100.00;98321.59;5104642;27;20558;-54
2023/02/10 07:27:38;;;;;;;29.83;15.90;;;;;;;1.87;100.00;98327.47;5102686;27;20107;-57
2023/02/10 07:30:07;;;;;;;31.10;16.20;;;;;;;1.97;100.00;98330.66;5096598;27;20093;-59
2023/02/10 07:32:36;;;;;;;29.80;15.35;;;;;;;2.08;100.00;98334.63;5094039;28;20056;-56
2023/02/10 07:35:04;;;;;;;29.75;15.48;;;;;;;2.16;100.00;98341.34;5106153;27;20079;-54
2023/02/10 07:37:33;;;;;;;26.83;14.75;;;;;;;2.25;100.00;98341.94;5098149;27;20066;-55
2023/02/10 07:40:03;;;;;;;27.65;15.27;;;;;;;2.32;100.00;98339.97;5100392;27;20091;-52
2023/02/10 07:42:31;;;;;;;30.52;15.25;;;;;;;2.47;100.00;98343.84;5106329;27;20074;-60
2023/02/10 07:45:00;;;;;;;27.77;14.52;;;;;;;2.54;100.00;98343.59;5107675;27;20070;-58
2023/02/10 07:47:28;;;;;;;30.73;15.88;;;;;;;2.62;100.00;98340.78;5104837;27;20083;-57
2023/02/10 07:49:57;;;;;;;29.55;15.63;;;;;;;2.78;100.00;98348.94;5108279;27;20078;-55
2023/02/10 07:52:25;;;;;;;26.58;14.82;;;;;;;2.90;100.00;98348.53;5108232;27;20083;-55
2023/02/10 07:54:55;;;;;;;30.63;15.13;;;;;;;3.04;100.00;98346.31;5109609;27;20083;-56
2023/02/10 07:57:25;;;;;;;27.13;15.48;;;;;;;3.18;100.00;98350.22;5098882;27;20087;-58
2023/02/10 07:59:53;;;;;;;31.55;15.63;;;;;;;3.33;100.00;98345.31;5109202;27;20086;-54
2023/02/10 08:02:21;;;;;;;31.88;15.35;;;;;;;3.42;100.00;98351.97;5097916;27;20084;-53
2023/02/10 08:04:52;;;;;;;27.60;14.60;;;;;;;3.55;100.00;98352.41;5108367;27;20087;-54
2023/02/10 08:07:20;;;;;;;28.75;16.13;;;;;;;2.63;100.00;98360.72;5111129;27;20093;-54
2023/02/10 08:09:48;;;;;;;25.38;14.05;;;;;;;3.23;100.00;98354.34;5104263;27;20082;-52
2023/02/10 08:12:17;;;;;;;28.65;15.75;;;;;;;3.21;100.00;98343.16;5099599;28;20075;-51
2023/02/10 08:14:47;;;;;;;25.80;14.55;;;;;;;3.53;100.00;98347.22;5098199;27;20554;-53
2023/02/10 08:17:15;;;;;;;31.48;15.27;;;;;;;3.80;100.00;98336.72;5109125;27;20090;-56
2023/02/10 08:19:44;;;;;;;34.10;16.23;;;;;;;3.87;100.00;98330.34;5114144;27;20075;-55
2023/02/10 08:22:12;;;;;;;32.08;16.15;;;;;;;3.98;100.00;98328.19;5121036;27;20090;-54
2023/02/10 08:24:40;;;;;;;33.83;17.95;;;;;;;3.65;100.00;98329.41;5109712;27;20080;-54
2023/02/10 08:27:09;;;;;;;30.00;16.15;;;;;;;3.95;100.00;98330.91;5116875;27;20078;-55
2023/02/10 08:29:39;;;;;;;29.65;15.38;;;;;;;4.29;100.00;98332.25;5109988;27;20079;-58
2023/02/10 08:32:09;;;;;;;24.23;13.88;;;;;;;4.61;100.00;98330.09;5115343;27;20087;-57
2023/02/10 08:34:40;;;;;;;28.40;14.45;;;;;;;4.78;100.00;98329.44;5111230;27;20079;-52
2023/02/10 08:37:08;;;;;;;26.85;13.77;;;;;;;4.93;100.00;98334.88;5101971;27;20084;-54
2023/02/10 08:39:36;;;;;;;27.10;13.77;;;;;;;4.70;100.00;98332.38;5104335;27;20079;-54
2023/02/10 08:42:05;;;;;;;25.75;13.73;;;;;;;4.83;100.00;98335.34;5102588;27;20067;-51
2023/02/10 08:44:34;;;;;;;25.75;13.85;;;;;;;4.80;100.00;98338.91;5100850;27;20094;-53
2023/02/10 08:47:02;;;;;;;27.25;14.27;;;;;;;4.42;100.00;98341.31;5103078;27;20519;-54
2023/02/10 08:49:32;;;;;;;23.13;12.63;;;;;;;4.88;100.00;98333.38;5101721;27;20079;-55
2023/02/10 08:52:00;;;;;;;25.35;14.20;;;;;;;4.34;100.00;98338.16;5104552;28;20071;-56
2023/02/10 08:54:29;;;;;;;31.27;13.25;;;;;;;4.26;100.00;98341.03;5102966;28;20082;-55
2023/02/10 08:56:57;;;;;;;22.42;12.85;;;;;;;4.75;100.00;98349.56;5104621;27;20130;-53
2023/02/10 08:59:26;;;;;;;23.60;13.00;;;;;;;4.46;100.00;98350.72;5096645;27;20090;-55
2023/02/10 09:01:54;;;;;;;24.40;11.20;;;;;;;4.73;100.00;98358.38;5096975;27;20071;-54
2023/02/10 09:04:22;;;;;;;26.55;13.55;;;;;;;4.55;100.00;98359.13;5103931;28;20086;-52
2023/02/10 09:06:52;;;;;;;24.08;12.88;;;;;;;4.48;100.00;98361.97;5109844;28;20086;-56
2023/02/10 09:09:24;;;;;;;24.23;12.43;;;;;;;5.16;100.00;98353.97;5104833;27;20905;-55
2023/02/10 09:11:55;;;;;;;22.42;12.40;;;;;;;5.06;100.00;98357.91;5101826;27;20087;-53
2023/02/10 09:14:23;;;;;;;26.27;11.38;;;;;;;4.89;100.00;98351.63;5106807;27;20079;-51
2023/02/10 09:16:52;;;;;;;23.95;12.73;;;;;;;4.98;100.00;98345.16;5097747;27;20086;-51
2023/02/10 09:19:21;;;;;;;22.50;11.70;;;;;;;5.61;100.00;98345.06;5104197;27;20070;-52
2023/02/10 09:21:49;;;;;;;24.35;12.63;;;;;;;5.55;100.00;98346.22;5107067;27;20078;-54
2023/02/10 09:24:19;;;;;;;26.15;12.05;;;;;;;4.68;100.00;98360.31;5107710;27;20090;-54
2023/02/10 09:26:47;;;;;;;22.92;12.52;;;;;;;5.09;100.00;98360.38;5107920;27;20472;-58
2023/02/10 09:29:15;;;;;;;26.02;12.15;;;;;;;5.25;100.00;98358.84;5104485;27;20562;-55
2023/02/10 09:31:43;;;;;;;22.63;11.10;;;;;;;5.59;100.00;98360.00;5103776;27;20599;-54
2023/02/10 09:34:12;;;;;;;22.90;11.45;;;;;;;5.91;100.00;98367.28;5104924;27;20472;-51
2023/02/10 09:36:40;;;;;;;13.10;6.85;;;;;;;5.74;100.00;98382.03;5101601;28;20075;-56
2023/02/10 09:39:09;;;;;;;23.08;9.82;;;;;;;5.58;100.00;98374.03;5098224;27;20083;-56
2023/02/10 09:41:49;;;;;;;25.25;12.30;;;;;;;5.83;99.41;98372.03;5091370;27;20149;-53
2023/02/10 09:44:18;;;;;;;21.60;12.63;;;;;;;5.64;98.48;98376.34;5102941;27;20079;-52
2023/02/10 09:47:06;;;;;;;23.98;12.52;;;;;;;5.64;100.00;98381.59;5106690;27;20117;-51
2023/02/10 09:49:53;;;;;;;22.30;12.07;;;;;;;6.10;96.48;98375.22;5095138;27;20091;-51
2023/02/10 09:52:30;;;;;;;26.42;13.75;;;;;;;6.23;88.99;98372.00;5100151;28;20098;-53
2023/02/10 09:54:59;;;;;;;30.02;14.57;;;;;;;6.28;88.58;98365.66;5095321;27;20074;-55
2023/02/10 09:57:36;;;;;;;30.10;14.73;;;;;;;6.27;86.28;98371.81;5093675;27;20075;-54
2023/02/10 10:00:06;;;;;;;28.48;14.68;;;;;;;5.78;91.49;98366.16;5092955;27;20524;-56
2023/02/10 10:02:41;;;;;;;30.80;16.20;;;;;;;6.53;86.95;98361.88;5099031;27;20074;-57
2023/02/10 10:05:23;;;;;;;31.50;14.35;;;;;;;6.64;80.39;98360.47;5099813;27;20083;-56
2023/02/10 10:07:54;;;;;;;29.48;11.77;;;;;;;6.42;80.33;98363.22;5094747;28;20076;-56
2023/02/10 10:10:25;;;;;;;33.67;15.25;;;;;;;6.61;85.64;98368.47;5089352;28;20079;-52
2023/02/10 10:12:56;;;;;;;28.80;15.07;;;;;;;6.70;81.38;98366.31;5096019;28;20063;-55
2023/02/10 10:15:27;;;;;;;33.53;16.83;;;;;;;6.78;75.89;98365.03;5098988;27;20550;-50
2023/02/10 10:18:02;;;;;;;35.00;17.13;;;;;;;7.07;76.39;98360.97;5090313;28;20060;-54
2023/02/10 10:20:44;;;;;;;30.33;14.85;;;;;;;7.79;68.86;98352.03;5103026;28;20073;-55
2023/02/10 10:23:25;;;;;;;24.80;12.60;;;;;;;7.24;74.56;98359.28;5107845;27;20071;-55
2023/02/10 10:26:01;;;;;;;29.38;13.38;;;;;;;7.16;73.73;98359.69;5100233;28;20087;-55
2023/02/10 10:28:38;;;;;;;31.80;14.60;;;;;;;7.12;71.55;98355.50;5097074;28;20089;-52
2023/02/10 10:31:09;;;;;;;34.33;17.15;;;;;;;6.81;72.57;98351.78;5101409;28;20079;-53
2023/02/10 10:33:41;;;;;;;35.08;16.23;;;;;;;7.16;67.78;98351.81;5098908;28;20075;-56
2023/02/10 10:36:13;;;;;;;34.38;18.52;;;;;;;6.90;76.31;98355.72;5096399;27;20078;-56
2023/02/10 10:38:44;;;;;;;35.42;18.33;;;;;;;7.59;70.04;98357.50;5093020;28;20074;-55
2023/02/10 10:41:14;;;;;;;34.22;17.08;;;;;;;7.61;65.53;98353.88;5100139;28;20117;-56
2023/02/10 10:43:47;;;;;;;32.40;17.67;;;;;;;8.48;57.87;98337.00;5099691;28;20075;-60
2023/02/10 10:46:20;;;;;;;24.13;10.05;;;;;;;7.82;60.10;98337.91;5092510;28;20075;-56
2023/02/10 10:48:48;;;;;;;33.33;16.42;;;;;;;8.66;59.21;98329.84;5093478;28;20072;-55
2023/02/10 10:51:17;;;;;;;41.40;18.45;;;;;;;7.64;62.51;98333.59;5095950;28;20071;-53
2023/02/10 10:53:48;;;;;;;33.40;17.48;;;;;;;7.83;61.89;98326.47;5098878;27;20505;-56
2023/02/10 10:56:22;;;;;;;38.03;18.27;;;;;;;7.78;62.46;98323.25;5097596;27;20075;-55
2023/02/10 10:58:52;;;;;;;37.50;18.25;;;;;;;8.47;64.02;98314.28;5090622;27;20098;-55
2023/02/10 11:01:33;;;;;;;36.42;18.65;;;;;;;8.78;57.10;98308.13;5092159;27;20083;-60
2023/02/10 11:04:12;;;;;;;28.05;14.00;;;;;;;7.80;64.29;98309.09;5100451;27;20101;-55
2023/02/10 11:06:42;;;;;;;35.72;15.98;;;;;;;7.75;65.11;98305.03;5102529;27;20074;-57
2023/02/10 11:09:22;;;;;;;36.25;18.23;;;;;;;7.84;63.31;98296.63;5106278;27;20082;-53
2023/02/10 11:11:51;;;;;;;36.22;17.67;;;;;;;7.48;66.69;98294.19;5096570;27;20082;-55
2023/02/10 11:14:23;;;;;;;33.67;16.98;;;;;;;7.96;66.14;98287.25;5093539;28;20067;-49
2023/02/10 11:16:52;;;;;;;32.28;17.23;;;;;;;7.90;61.88;98292.84;5093952;27;20064;-50
2023/02/10 11:19:23;;;;;;;36.30;18.77;;;;;;;8.66;58.19;98283.34;5100437;27;20071;-53
2023/02/10 11:21:52;;;;;;;33.25;17.58;;;;;;;8.36;63.69;98283.25;5094459;27;20083;-54
2023/02/10 11:24:23;;;;;;;26.17;12.50;;;;;;;7.92;66.11;98276.06;5105183;27;20078;-57
2023/02/10 11:27:00;;;;;;;30.42;17.58;;;;;;;7.67;69.75;98287.03;5097181;27;20079;-56
2023/02/10 11:29:32;;;;;;;38.08;18.65;;;;;;;7.58;70.33;98274.41;5099052;28;20083;-57
2023/02/10 11:32:01;;;;;;;37.17;17.23;;;;;;;8.63;61.95;98272.16;5094896;28;20881;-57
2023/02/10 11:34:31;;;;;;;38.10;18.38;;;;;;;8.12;61.42;98266.22;5095245;27;20145;-50
2023/02/10 11:37:00;;;;;;;34.25;18.27;;;;;;;8.41;69.50;98273.38;5094475;27;20448;-52